createdAt,value
2023-05-19T00:05:58.996Z,1.80
2023-05-19T00:12:00.646Z,2.03
2023-05-19T00:18:02.587Z,1.87
2023-05-19T00:24:04.451Z,1.80
2023-05-19T00:30:06.314Z,1.80
2023-05-19T00:36:08.370Z,2.08
2023-05-19T00:42:09.844Z,2.00
2023-05-19T00:48:11.371Z,1.97
2023-05-19T00:54:12.871Z,2.20
2023-05-19T01:00:14.701Z,2.00
2023-05-19T01:06:20.041Z,1.88
2023-05-19T01:12:21.551Z,2.13
2023-05-19T01:18:28.584Z,1.80
2023-05-19T01:24:33.021Z,2.00
2023-05-19T01:30:39.799Z,2.03
2023-05-19T01:36:44.709Z,2.33
2023-05-19T01:42:47.800Z,2.20
2023-05-19T01:48:52.352Z,2.20
2023-05-19T01:54:54.517Z,2.20
2023-05-19T02:01:05.514Z,2.30
2023-05-19T02:07:14.609Z,2.22
2023-05-19T02:13:18.149Z,2.50
2023-05-19T02:19:21.025Z,2.13
2023-05-19T02:25:24.176Z,2.30
2023-05-19T02:31:25.674Z,2.37
2023-05-19T02:37:28.636Z,2.30
2023-05-19T02:43:30.622Z,2.13
2023-05-19T02:49:35.857Z,2.37
2023-05-19T02:55:37.704Z,2.53
2023-05-19T03:01:41.230Z,2.37
2023-05-19T03:07:42.930Z,2.15
2023-05-19T03:13:44.367Z,2.38
2023-05-19T03:19:46.428Z,2.70
2023-05-19T03:25:48.742Z,2.53
2023-05-19T03:31:51.917Z,2.80
2023-05-19T03:37:53.921Z,2.65
2023-05-19T03:43:56.278Z,2.60
2023-05-19T03:49:57.947Z,2.60
2023-05-19T03:56:19.094Z,2.60
2023-05-19T04:02:22.591Z,2.70
2023-05-19T04:08:24.194Z,2.45
2023-05-19T04:14:25.748Z,2.80
2023-05-19T04:20:28.535Z,2.27
2023-05-19T04:26:31.013Z,2.45
2023-05-19T04:32:32.983Z,2.50
2023-05-19T04:38:36.809Z,2.40
2023-05-19T04:44:40.136Z,2.38
2023-05-19T04:50:48.874Z,2.33
2023-05-19T04:56:50.550Z,2.50
2023-05-19T05:02:53.209Z,2.80
2023-05-19T05:08:56.922Z,2.47
2023-05-19T05:14:59.819Z,2.55
2023-05-19T05:21:02.055Z,2.37
2023-05-19T05:27:05.709Z,2.30
2023-05-19T05:33:08.852Z,2.60
2023-05-19T05:39:15.322Z,2.80
2023-05-19T05:45:19.124Z,2.42
2023-05-19T05:51:21.703Z,2.83
2023-05-19T05:57:23.645Z,2.80
2023-05-19T06:03:25.506Z,2.70
2023-05-19T06:09:29.726Z,2.50
2023-05-19T06:15:31.770Z,2.50
2023-05-19T06:21:38.314Z,2.50
2023-05-19T06:27:39.946Z,2.50
2023-05-19T06:33:41.501Z,2.63
2023-05-19T06:39:43.142Z,2.65
2023-05-19T06:45:46.082Z,2.30
2023-05-19T06:51:47.836Z,2.27
2023-05-19T06:57:49.717Z,2.83
2023-05-19T07:03:52.229Z,2.40
2023-05-19T07:09:55.847Z,2.60
2023-05-19T07:15:57.714Z,2.83
2023-05-19T07:22:00.753Z,2.57
2023-05-19T07:28:03.470Z,2.70
2023-05-19T07:34:05.083Z,2.53
2023-05-19T07:40:08.546Z,2.50
2023-05-19T07:46:10.182Z,1.90
2023-05-19T07:52:12.161Z,2.00
2023-05-19T07:58:16.517Z,2.30
2023-05-19T08:04:18.261Z,2.50
2023-05-19T08:10:19.957Z,2.22
2023-05-19T08:16:21.704Z,2.22
2023-05-19T08:22:23.298Z,2.77
2023-05-19T08:28:24.780Z,2.47
2023-05-19T08:34:26.255Z,2.50
2023-05-19T08:40:31.389Z,2.50
2023-05-19T08:46:33.366Z,2.30
2023-05-19T08:52:38.151Z,2.50
2023-05-19T08:58:41.333Z,2.85
2023-05-19T09:04:45.935Z,2.10
2023-05-19T09:10:49.095Z,2.08
2023-05-19T09:16:52.814Z,2.10
2023-05-19T09:22:54.374Z,2.10
2023-05-19T09:28:58.084Z,2.17
2023-05-19T09:34:59.568Z,2.00
2023-05-19T09:41:01.748Z,1.65
2023-05-19T09:47:03.479Z,1.90
2023-05-19T09:53:05.520Z,1.63
2023-05-19T09:59:08.039Z,1.60
2023-05-19T10:05:17.647Z,1.80
2023-05-19T10:11:21.605Z,1.67
2023-05-19T10:17:26.840Z,2.10
2023-05-19T10:23:28.402Z,1.70
2023-05-19T10:29:31.664Z,1.90
2023-05-19T10:35:34.764Z,2.00
2023-05-19T10:41:46.961Z,1.98
2023-05-19T10:47:50.899Z,1.73
2023-05-19T10:53:54.084Z,1.90
2023-05-19T10:59:56.401Z,1.88
2023-05-19T11:06:17.264Z,2.00
2023-05-19T11:12:24.824Z,2.05
2023-05-19T11:18:26.697Z,2.28
2023-05-19T11:24:37.541Z,2.40
2023-05-19T11:30:44.671Z,2.10
2023-05-19T11:36:46.301Z,2.50
2023-05-19T11:42:47.787Z,2.30
2023-05-19T11:48:53.504Z,2.42
2023-05-19T11:54:56.743Z,2.47
2023-05-19T12:01:03.928Z,2.20
2023-05-19T12:07:06.391Z,2.30
2023-05-19T12:13:09.627Z,2.20
2023-05-19T12:19:11.619Z,2.13
2023-05-19T12:25:13.495Z,2.63
2023-05-19T12:31:15.148Z,2.38
2023-05-19T12:37:16.777Z,2.43
2023-05-19T12:43:24.966Z,2.70
2023-05-19T12:49:26.447Z,2.10
2023-05-19T12:55:28.089Z,2.30
2023-05-19T13:01:30.885Z,2.40
2023-05-19T13:07:32.475Z,2.67
2023-05-19T13:13:34.062Z,2.40
2023-05-19T13:19:54.298Z,2.60
2023-05-19T13:25:56.022Z,2.40
2023-05-19T13:32:01.221Z,2.70
2023-05-19T13:38:04.290Z,2.67
2023-05-19T13:44:05.947Z,2.80
2023-05-19T13:50:09.164Z,2.53
2023-05-19T13:56:10.706Z,2.50
2023-05-19T14:02:12.786Z,2.63
2023-05-19T14:08:16.304Z,3.60
2023-05-19T14:14:17.806Z,2.25
2023-05-19T14:20:19.438Z,2.30
2023-05-19T14:26:21.824Z,2.60
2023-05-19T14:32:23.496Z,2.70
2023-05-19T14:38:26.510Z,2.77
2023-05-19T14:44:30.820Z,2.22
2023-05-19T14:50:32.421Z,2.30
2023-05-19T14:56:34.183Z,2.50
2023-05-19T15:02:36.076Z,2.85
2023-05-19T15:08:38.211Z,2.80
2023-05-19T15:14:39.759Z,2.42
2023-05-19T15:20:42.008Z,2.20
2023-05-19T15:26:43.740Z,2.30
2023-05-19T15:32:45.310Z,2.50
2023-05-19T15:38:46.877Z,2.30
2023-05-19T15:44:48.394Z,2.92
2023-05-19T15:50:52.058Z,2.20
2023-05-19T15:56:53.602Z,2.33
2023-05-19T16:02:55.201Z,2.22
2023-05-19T16:08:56.956Z,2.50
2023-05-19T16:14:58.443Z,2.10
2023-05-19T16:21:00.011Z,2.13
2023-05-19T16:27:01.801Z,2.27
2023-05-19T16:33:03.378Z,2.20
2023-05-19T16:39:05.004Z,2.20
2023-05-19T16:45:06.755Z,2.20
2023-05-19T16:51:08.242Z,2.00
2023-05-19T16:57:09.970Z,2.50
2023-05-19T17:03:11.667Z,10.73
2023-05-19T17:09:13.473Z,2.50
2023-05-19T17:15:15.590Z,2.30
2023-05-19T17:21:17.624Z,2.20
2023-05-19T17:27:19.433Z,2.00
2023-05-19T17:33:21.050Z,2.60
2023-05-19T17:39:22.634Z,4.33
2023-05-19T17:45:24.586Z,2.65
2023-05-19T17:51:26.325Z,2.78
2023-05-19T17:57:30.045Z,2.20
2023-05-19T18:03:31.938Z,2.60
2023-05-19T18:09:35.901Z,2.77
2023-05-19T18:15:37.460Z,2.70
2023-05-19T18:21:39.123Z,2.83
2023-05-19T18:27:43.020Z,2.70
2023-05-19T18:33:47.674Z,2.60
2023-05-19T18:39:49.366Z,2.97
2023-05-19T18:45:51.046Z,2.83
2023-05-19T18:51:53.114Z,2.83
2023-05-19T18:57:55.149Z,2.70
2023-05-19T19:03:56.781Z,2.88
2023-05-19T19:10:00.841Z,3.10
2023-05-19T19:16:02.464Z,2.92
2023-05-19T19:22:04.165Z,3.20
2023-05-19T19:28:07.457Z,3.43
2023-05-19T19:34:09.446Z,3.17
2023-05-19T19:40:11.294Z,3.73
2023-05-19T19:46:12.827Z,2.90
2023-05-19T19:52:14.827Z,3.20
2023-05-19T19:58:16.534Z,3.57
2023-05-19T20:04:19.506Z,2.95
2023-05-19T20:10:21.134Z,3.30
2023-05-19T20:16:24.094Z,5.43
2023-05-19T20:22:26.211Z,3.53
2023-05-19T20:28:27.816Z,3.00
2023-05-19T20:34:29.443Z,3.35
2023-05-19T20:40:33.435Z,3.57
2023-05-19T20:46:35.121Z,3.35
2023-05-19T20:52:37.063Z,3.13
2023-05-19T20:58:39.350Z,3.23
2023-05-19T21:04:40.986Z,3.33
2023-05-19T21:10:42.612Z,3.30
2023-05-19T21:16:44.278Z,3.35
2023-05-19T21:22:45.804Z,3.10
2023-05-19T21:28:47.462Z,3.53
2023-05-19T21:34:48.983Z,3.95
2023-05-19T21:40:50.839Z,3.80
2023-05-19T21:46:52.529Z,4.03
2023-05-19T21:52:55.194Z,4.20
2023-05-19T21:58:56.768Z,4.47
2023-05-19T22:04:58.226Z,4.50
2023-05-19T22:10:59.775Z,4.50
2023-05-19T22:17:02.198Z,4.38
2023-05-19T22:23:04.017Z,4.40
2023-05-19T22:29:05.560Z,4.47
2023-05-19T22:35:09.949Z,4.95
2023-05-19T22:41:11.442Z,4.67
2023-05-19T22:47:13.952Z,4.90
2023-05-19T22:53:17.223Z,5.30
2023-05-19T22:59:18.877Z,4.47
2023-05-19T23:05:20.330Z,5.00
2023-05-19T23:11:21.921Z,5.27
2023-05-19T23:17:23.414Z,5.03
2023-05-19T23:23:24.904Z,5.28
2023-05-19T23:29:27.578Z,4.87
2023-05-19T23:35:29.069Z,4.47
2023-05-19T23:41:31.403Z,5.00
2023-05-19T23:47:32.924Z,4.68
2023-05-19T23:53:35.661Z,4.25
2023-05-19T23:59:37.112Z,4.50
